Terminal Aerodrome Forecast
Issued by NWS

Home | Current Version | Previous Version | Text Only | Print | Product List | Glossary On
Versions: 1 2 3 4 5 6 7 8 9 10 11 12 13 14 15 16 17 18 19 20 21
633
FTUS41 KPBZ 061132
TAFDUJ
TAF
KDUJ 061132Z 0612/0712 20007KT P6SM BKN060
     FM061700 24010G17KT P6SM SCT050 BKN120
     FM070100 24005KT P6SM SCT200=

USA.gov is the U.S. government's official web portal to all federal, state and local government web resources and services.